Time;durP1;ratioP1;P1;durP2;ratioP2;P2;SDS_P1;SDS_P2;PMS_P1;PMS_P2;Temp;Humidity;BMP_temperature;BMP_pressure;BME280_temperature;BME280_humidity;BME280_pressure;Samples;Min_cycle;Max_cycle;Signal;HPM_P1;HPM_P2
2022/12/05 00:02:07;;;;;;;34.57;21.47;;;5.20;99.90;;;;;;5027217;28;20439;-73
2022/12/05 00:04:32;;;;;;;35.30;21.20;;;5.20;99.90;;;;;;5029171;28;20800;-73
2022/12/05 00:06:58;;;;;;;37.97;22.75;;;5.20;99.90;;;;;;5029176;28;20403;-73
2022/12/05 00:09:24;;;;;;;35.60;22.17;;;5.20;99.90;;;;;;5030345;28;20477;-74
2022/12/05 00:11:49;;;;;;;39.15;23.05;;;5.30;99.90;;;;;;5030246;28;20498;-74
2022/12/05 00:14:15;;;;;;;35.80;22.03;;;5.30;99.90;;;;;;5029230;28;20761;-74
2022/12/05 00:16:42;;;;;;;37.30;22.40;;;5.20;99.90;;;;;;5013812;28;20479;-74
2022/12/05 00:19:10;;;;;;;38.08;22.65;;;5.30;99.90;;;;;;5031301;28;20465;-74
2022/12/05 00:21:36;;;;;;;36.55;22.75;;;5.30;99.90;;;;;;5040896;28;20993;-74
2022/12/05 00:24:03;;;;;;;38.67;22.83;;;5.30;99.90;;;;;;5029449;28;20404;-74
2022/12/05 00:26:29;;;;;;;36.80;22.88;;;5.30;99.90;;;;;;5019697;28;20409;-74
2022/12/05 00:28:56;;;;;;;35.90;22.05;;;5.30;99.90;;;;;;5019153;28;20477;-74
2022/12/05 00:31:23;;;;;;;32.88;20.95;;;5.30;99.90;;;;;;5030360;28;20431;-74
2022/12/05 00:33:49;;;;;;;31.52;20.10;;;5.30;99.90;;;;;;4998335;28;20917;-74
2022/12/05 00:36:18;;;;;;;29.48;19.30;;;5.30;99.90;;;;;;5030600;28;20395;-74
2022/12/05 00:38:44;;;;;;;30.05;18.30;;;5.40;99.90;;;;;;5030358;28;20425;-74
2022/12/05 00:41:12;;;;;;;26.33;18.10;;;5.40;99.90;;;;;;5029092;28;20449;-74
2022/12/05 00:43:39;;;;;;;25.30;16.48;;;5.40;99.90;;;;;;5020071;28;20779;-74
2022/12/05 00:46:07;;;;;;;23.67;16.20;;;5.50;99.90;;;;;;5021849;28;20399;-74
2022/12/05 00:48:34;;;;;;;23.38;16.30;;;5.50;99.90;;;;;;5027900;28;20403;-74
2022/12/05 00:51:10;;;;;;;20.77;14.25;;;5.60;99.90;;;;;;5010027;28;20909;-74
2022/12/05 00:53:36;;;;;;;23.25;14.82;;;5.60;99.90;;;;;;5027307;28;20422;-74
2022/12/05 00:56:07;;;;;;;21.02;14.23;;;5.60;99.90;;;;;;5010213;28;20450;-74
2022/12/05 00:58:33;;;;;;;20.10;13.77;;;5.60;99.90;;;;;;5027375;28;21043;-74
2022/12/05 01:01:11;;;;;;;19.50;14.10;;;5.60;99.90;;;;;;5010366;28;20403;-73
2022/12/05 01:03:37;;;;;;;19.23;13.32;;;5.60;99.90;;;;;;5028044;28;20454;-74
2022/12/05 01:06:04;;;;;;;20.13;13.80;;;5.70;99.90;;;;;;5016074;28;20414;-74
2022/12/05 01:08:31;;;;;;;18.30;13.10;;;5.70;99.90;;;;;;5027264;28;20429;-74
2022/12/05 01:10:57;;;;;;;19.08;13.38;;;5.70;99.90;;;;;;5040024;28;20405;-74
2022/12/05 01:13:24;;;;;;;18.90;13.20;;;5.70;99.90;;;;;;5008020;28;20457;-73
2022/12/05 01:15:50;;;;;;;20.23;13.25;;;5.70;99.90;;;;;;5027065;28;20844;-74
2022/12/05 01:18:16;;;;;;;18.92;12.75;;;5.70;99.90;;;;;;4996945;28;20486;-74
2022/12/05 01:20:42;;;;;;;16.33;11.85;;;5.70;99.90;;;;;;5035408;28;20410;-74
2022/12/05 01:23:08;;;;;;;18.13;12.10;;;5.70;99.90;;;;;;5031877;28;20431;-74
2022/12/05 01:25:37;;;;;;;16.25;11.18;;;5.80;99.90;;;;;;5016553;28;20473;-74
2022/12/05 01:28:03;;;;;;;16.25;11.90;;;5.70;99.90;;;;;;5031726;28;20407;-74
2022/12/05 01:30:29;;;;;;;15.43;11.20;;;5.80;99.90;;;;;;5018730;28;20404;-74
2022/12/05 01:32:54;;;;;;;17.37;11.30;;;5.80;99.90;;;;;;5026420;28;20403;-74
2022/12/05 01:35:20;;;;;;;17.03;11.30;;;5.80;99.90;;;;;;5034768;28;20554;-74
2022/12/05 01:37:45;;;;;;;15.65;11.07;;;5.80;99.90;;;;;;5025551;28;21004;-74
2022/12/05 01:40:11;;;;;;;20.23;12.10;;;5.80;99.90;;;;;;5035040;28;21112;-74
2022/12/05 01:42:38;;;;;;;19.30;12.13;;;5.80;99.90;;;;;;5031136;28;20526;-74
2022/12/05 01:45:16;;;;;;;17.80;12.27;;;5.80;99.90;;;;;;5024922;28;20409;-74
2022/12/05 01:47:42;;;;;;;20.70;12.83;;;5.70;99.90;;;;;;5013652;28;20415;-74
2022/12/05 01:50:08;;;;;;;18.67;12.40;;;5.80;99.90;;;;;;5033689;28;20422;-74
2022/12/05 01:52:35;;;;;;;19.17;12.02;;;5.70;99.90;;;;;;5033741;28;20461;-74
2022/12/05 01:55:07;;;;;;;17.23;11.27;;;5.70;99.90;;;;;;5023726;28;20403;-74
2022/12/05 01:57:33;;;;;;;17.42;11.27;;;5.70;99.90;;;;;;5011474;28;20918;-74
2022/12/05 02:00:08;;;;;;;19.98;11.40;;;5.70;99.90;;;;;;5035483;28;20457;-74
2022/12/05 02:02:34;;;;;;;16.40;10.98;;;5.70;99.90;;;;;;5032171;28;20429;-74
2022/12/05 02:05:20;;;;;;;16.07;10.83;;;5.70;99.90;;;;;;5031451;28;20413;-74
2022/12/05 02:07:47;;;;;;;17.23;10.37;;;5.70;99.90;;;;;;5024922;28;20422;-74
2022/12/05 02:10:13;;;;;;;15.95;10.35;;;5.70;99.90;;;;;;5009230;28;20409;-73
2022/12/05 02:12:39;;;;;;;15.02;10.80;;;5.60;99.90;;;;;;5016501;28;20523;-74
2022/12/05 02:15:05;;;;;;;14.38;9.57;;;5.70;99.90;;;;;;4991549;28;20415;-74
2022/12/05 02:17:50;;;;;;;13.20;9.70;;;5.70;99.90;;;;;;5007743;28;20475;-73
2022/12/05 02:20:41;;;;;;;13.52;9.43;;;5.70;99.90;;;;;;5015556;28;20417;-73
2022/12/05 02:23:07;;;;;;;13.75;9.32;;;5.60;99.90;;;;;;5019448;28;20475;-74
2022/12/05 02:26:18;;;;;;;13.13;9.63;;;5.70;99.90;;;;;;4992884;28;20442;-73
2022/12/05 02:28:55;;;;;;;14.43;9.75;;;5.70;99.90;;;;;;5012883;28;20416;-74
2022/12/05 02:31:37;;;;;;;15.18;9.25;;;5.70;99.90;;;;;;5014723;28;20416;-74
2022/12/05 02:34:37;;;;;;;13.07;9.25;;;5.70;99.90;;;;;;5015460;28;20417;-74
2022/12/05 02:37:15;;;;;;;16.17;9.53;;;5.70;99.90;;;;;;4945289;28;20837;-74
2022/12/05 02:39:56;;;;;;;15.23;9.07;;;5.60;99.90;;;;;;4981952;28;20409;-74
2022/12/05 02:42:59;;;;;;;13.63;9.10;;;5.60;99.90;;;;;;5011457;28;20878;-74
2022/12/05 02:45:28;;;;;;;14.98;9.18;;;5.60;99.90;;;;;;5004128;28;20448;-73
2022/12/05 02:47:55;;;;;;;12.32;9.07;;;5.70;99.90;;;;;;5016429;28;20415;-74
2022/12/05 02:50:30;;;;;;;12.82;8.50;;;5.70;99.90;;;;;;4999686;28;20407;-74
2022/12/05 02:52:58;;;;;;;13.50;8.95;;;5.70;99.90;;;;;;5016221;28;20404;-73
2022/12/05 02:55:27;;;;;;;14.15;8.50;;;5.70;99.90;;;;;;4995593;28;20418;-74
2022/12/05 02:57:56;;;;;;;14.25;9.23;;;5.70;99.90;;;;;;5022399;28;20404;-74
2022/12/05 03:00:22;;;;;;;14.82;8.93;;;5.70;99.90;;;;;;5014356;28;20416;-73
2022/12/05 03:02:52;;;;;;;13.07;9.23;;;5.70;99.90;;;;;;5017110;28;20465;-73
2022/12/05 03:05:38;;;;;;;13.60;8.90;;;5.70;99.90;;;;;;5009631;28;20401;-74
2022/12/05 03:08:09;;;;;;;14.43;8.90;;;5.70;99.90;;;;;;5027102;28;20411;-75
2022/12/05 03:10:37;;;;;;;14.00;9.05;;;5.70;99.90;;;;;;5035695;28;20453;-73
2022/12/05 03:13:39;;;;;;;12.27;9.00;;;5.70;99.90;;;;;;5037094;28;20970;-74
2022/12/05 03:16:17;;;;;;;13.65;9.20;;;5.70;99.90;;;;;;5028344;28;20516;-74
2022/12/05 03:18:48;;;;;;;18.30;10.55;;;5.60;99.90;;;;;;5043444;28;20422;-74
2022/12/05 03:21:18;;;;;;;16.40;9.75;;;5.60;99.90;;;;;;5027992;28;20412;-73
2022/12/05 03:23:54;;;;;;;14.00;9.60;;;5.60;99.90;;;;;;5041891;28;20418;-73
2022/12/05 03:26:25;;;;;;;16.30;10.13;;;5.60;99.90;;;;;;5013595;28;20906;-74
2022/12/05 03:29:12;;;;;;;17.60;9.88;;;5.60;99.90;;;;;;5033147;28;20421;-73
2022/12/05 03:31:47;;;;;;;15.23;10.38;;;5.60;99.90;;;;;;5031813;28;20477;-74
2022/12/05 03:34:21;;;;;;;18.80;10.75;;;5.60;99.90;;;;;;5014734;28;20423;-74
2022/12/05 03:36:50;;;;;;;20.20;11.20;;;5.60;99.90;;;;;;4998516;28;20989;-74
2022/12/05 03:39:22;;;;;;;17.17;10.40;;;5.60;99.90;;;;;;5028577;28;20411;-73
2022/12/05 03:42:01;;;;;;;18.53;10.53;;;5.60;99.90;;;;;;5019460;28;20426;-73
2022/12/05 03:44:32;;;;;;;17.73;10.63;;;5.60;99.90;;;;;;5032986;28;20414;-74
2022/12/05 03:47:12;;;;;;;16.60;10.52;;;5.50;99.90;;;;;;5025776;28;20418;-73
2022/12/05 03:49:56;;;;;;;16.92;10.10;;;5.60;99.90;;;;;;5029683;28;20427;-74
2022/12/05 03:52:30;;;;;;;16.65;10.30;;;5.60;99.90;;;;;;5037005;28;20776;-74
2022/12/05 03:55:01;;;;;;;18.10;10.17;;;5.60;99.90;;;;;;5016668;28;20423;-73
2022/12/05 03:57:48;;;;;;;18.25;9.95;;;5.60;99.90;;;;;;5022803;28;20498;-73
2022/12/05 04:00:18;;;;;;;16.15;9.50;;;5.60;99.90;;;;;;5006595;28;20957;-74
2022/12/05 04:03:05;;;;;;;15.30;9.40;;;5.60;99.90;;;;;;5032710;28;20435;-74
2022/12/05 04:05:43;;;;;;;16.33;9.88;;;5.60;99.90;;;;;;5033435;28;20441;-73
2022/12/05 04:08:25;;;;;;;17.27;10.00;;;5.60;99.90;;;;;;5015060;28;20413;-74
2022/12/05 04:10:54;;;;;;;14.98;9.23;;;5.60;99.90;;;;;;5010324;28;20424;-74
2022/12/05 04:13:34;;;;;;;14.60;9.02;;;5.60;99.90;;;;;;5015933;28;20980;-74
2022/12/05 04:19:10;;;;;;;16.20;9.73;;;5.60;99.90;;;;;;5008998;28;20905;-74
2022/12/05 04:21:42;;;;;;;14.90;9.25;;;5.70;99.90;;;;;;5017406;28;20977;-74
2022/12/05 04:27:35;;;;;;;15.50;9.55;;;5.70;99.90;;;;;;5010259;28;20421;-73
2022/12/05 04:30:05;;;;;;;17.63;9.80;;;5.60;99.90;;;;;;4979105;28;20445;-73
2022/12/05 04:33:15;;;;;;;16.15;9.45;;;5.70;99.90;;;;;;5003371;28;20422;-73
2022/12/05 04:36:13;;;;;;;17.23;9.80;;;5.60;99.90;;;;;;5000913;28;20499;-73
2022/12/05 04:38:56;;;;;;;14.25;9.13;;;5.60;99.90;;;;;;4988827;28;20429;-73
2022/12/05 04:41:28;;;;;;;16.45;9.77;;;5.60;99.90;;;;;;5016854;28;21188;-74
2022/12/05 04:43:57;;;;;;;12.93;8.82;;;5.60;99.90;;;;;;4986631;28;21000;-73
2022/12/05 04:46:23;;;;;;;18.75;9.85;;;5.60;99.90;;;;;;5006988;28;20489;-73
2022/12/05 04:48:54;;;;;;;16.70;9.67;;;5.60;99.90;;;;;;5012412;28;20404;-73
2022/12/05 04:51:24;;;;;;;17.10;9.45;;;5.60;99.90;;;;;;5007003;28;20423;-73
2022/12/05 04:53:57;;;;;;;14.82;9.15;;;5.60;99.90;;;;;;5013400;28;20444;-73
2022/12/05 04:56:28;;;;;;;19.83;9.80;;;5.60;99.90;;;;;;4983980;28;20416;-74
2022/12/05 04:58:54;;;;;;;17.90;9.50;;;5.60;99.90;;;;;;5011804;28;20405;-74
2022/12/05 05:01:32;;;;;;;18.60;9.57;;;5.60;99.90;;;;;;5011966;28;20401;-73
2022/12/05 05:04:33;;;;;;;15.95;9.40;;;5.60;99.90;;;;;;5006948;28;20409;-74
2022/12/05 05:06:58;;;;;;;16.40;9.63;;;5.60;99.90;;;;;;4950684;28;20509;-73
2022/12/05 05:09:24;;;;;;;15.85;8.85;;;5.60;99.90;;;;;;5028279;28;20457;-73
2022/12/05 05:11:50;;;;;;;16.95;9.75;;;5.60;99.90;;;;;;5009119;28;20415;-73
2022/12/05 05:14:16;;;;;;;17.63;9.57;;;5.60;99.90;;;;;;5022462;28;20431;-73
2022/12/05 05:16:42;;;;;;;15.52;9.20;;;5.60;99.90;;;;;;5018967;28;20471;-73
2022/12/05 05:19:09;;;;;;;15.32;8.90;;;5.60;99.90;;;;;;5031280;28;20439;-73
2022/12/05 05:21:38;;;;;;;16.05;9.00;;;5.60;99.90;;;;;;5033755;28;20500;-73
2022/12/05 05:24:05;;;;;;;15.67;9.40;;;5.60;99.90;;;;;;5027614;28;20403;-73
2022/12/05 05:26:33;;;;;;;15.15;9.07;;;5.60;99.90;;;;;;5015926;28;20412;-73
2022/12/05 05:28:59;;;;;;;15.93;9.38;;;5.60;99.90;;;;;;5026479;28;20418;-74
2022/12/05 05:31:25;;;;;;;17.40;9.23;;;5.60;99.90;;;;;;5022128;28;20399;-73
2022/12/05 05:33:52;;;;;;;16.53;9.67;;;5.60;99.90;;;;;;4992492;28;20418;-73
2022/12/05 05:36:19;;;;;;;14.57;9.30;;;5.60;99.90;;;;;;5026464;28;21047;-74
2022/12/05 05:38:48;;;;;;;17.38;9.25;;;5.60;99.90;;;;;;5030733;28;20403;-73
2022/12/05 05:41:28;;;;;;;15.70;9.30;;;5.60;99.90;;;;;;5029964;28;20467;-74
2022/12/05 05:43:54;;;;;;;15.07;9.27;;;5.60;99.90;;;;;;5027048;28;20764;-73
2022/12/05 05:46:26;;;;;;;17.33;8.80;;;5.60;99.90;;;;;;5034616;28;20424;-74
2022/12/05 05:48:52;;;;;;;18.08;9.35;;;5.70;99.90;;;;;;5028258;28;20407;-73
2022/12/05 05:51:19;;;;;;;19.13;9.65;;;5.60;99.90;;;;;;5017491;28;20486;-73
2022/12/05 05:53:45;;;;;;;15.88;9.43;;;5.60;99.90;;;;;;5027388;28;20426;-73
2022/12/05 05:56:16;;;;;;;16.77;9.73;;;5.70;99.90;;;;;;5027930;28;20494;-73
2022/12/05 05:58:42;;;;;;;17.42;8.95;;;5.70;99.90;;;;;;5014677;28;20411;-73
2022/12/05 06:01:10;;;;;;;20.30;9.88;;;5.70;99.90;;;;;;5035161;28;21138;-74
2022/12/05 06:03:36;;;;;;;17.52;9.48;;;5.70;99.90;;;;;;5030186;28;20408;-73
2022/12/05 06:06:05;;;;;;;18.17;10.00;;;5.70;99.90;;;;;;5036947;28;20412;-73
2022/12/05 06:08:33;;;;;;;20.58;9.20;;;5.70;99.90;;;;;;5015468;28;20630;-73
2022/12/05 06:11:03;;;;;;;16.65;8.93;;;5.70;99.90;;;;;;5014585;28;20415;-73
2022/12/05 06:13:28;;;;;;;19.77;9.80;;;5.70;99.90;;;;;;5008220;28;20401;-74
2022/12/05 06:15:54;;;;;;;19.67;9.90;;;5.70;99.90;;;;;;5010765;28;20733;-74
2022/12/05 06:18:20;;;;;;;20.35;10.00;;;5.70;99.90;;;;;;5013667;28;20928;-73
2022/12/05 06:20:56;;;;;;;19.40;10.23;;;5.70;99.90;;;;;;5020499;28;20414;-74
2022/12/05 06:23:22;;;;;;;24.73;10.43;;;5.60;99.90;;;;;;5009197;28;20470;-73
2022/12/05 06:25:49;;;;;;;22.70;10.82;;;5.60;99.90;;;;;;5009505;28;20413;-73
2022/12/05 06:28:16;;;;;;;22.40;10.68;;;5.60;99.90;;;;;;5013772;28;20441;-74
2022/12/05 06:30:41;;;;;;;19.65;10.52;;;5.60;99.90;;;;;;5008994;28;20454;-73
2022/12/05 06:33:07;;;;;;;20.50;10.50;;;5.70;99.90;;;;;;5012814;28;20425;-74
2022/12/05 06:35:33;;;;;;;20.60;10.90;;;5.70;99.90;;;;;;5008272;28;20415;-74
2022/12/05 06:37:58;;;;;;;21.13;10.50;;;5.60;99.90;;;;;;5000146;28;20425;-73
2022/12/05 06:40:24;;;;;;;20.20;10.27;;;5.60;99.90;;;;;;4995090;28;20414;-75
2022/12/05 06:42:50;;;;;;;25.70;11.60;;;5.60;99.90;;;;;;5010983;28;21014;-75
2022/12/05 06:45:15;;;;;;;24.73;10.75;;;5.60;99.90;;;;;;5003084;28;20414;-74
2022/12/05 06:47:41;;;;;;;18.57;10.57;;;5.60;99.90;;;;;;5003358;28;20419;-74
2022/12/05 06:50:07;;;;;;;21.48;10.23;;;5.60;99.90;;;;;;5004399;28;20422;-74
2022/12/05 06:52:33;;;;;;;19.00;10.00;;;5.70;99.90;;;;;;5011300;28;20423;-74
2022/12/05 06:54:59;;;;;;;20.77;10.50;;;5.70;99.90;;;;;;5005607;28;20914;-73
2022/12/05 06:57:26;;;;;;;19.70;10.10;;;5.70;99.90;;;;;;5019495;28;20403;-73
2022/12/05 07:01:37;;;;;;;20.57;9.77;;;5.70;99.90;;;;;;5005391;28;20489;-74
2022/12/05 07:02:37;;;;;;;19.52;10.48;;;5.70;99.90;;;;;;5005959;28;20870;-73
2022/12/05 07:05:03;;;;;;;21.52;10.05;;;5.70;99.90;;;;;;5016769;28;20433;-74
2022/12/05 07:07:29;;;;;;;20.13;10.43;;;5.70;99.90;;;;;;5006620;28;20494;-73
2022/12/05 07:09:54;;;;;;;19.23;9.73;;;5.70;99.90;;;;;;5037243;28;20403;-74
2022/12/05 07:12:20;;;;;;;18.97;10.23;;;5.70;99.90;;;;;;5023375;28;20541;-73
2022/12/05 07:14:46;;;;;;;17.53;10.03;;;5.70;99.90;;;;;;5031283;28;20399;-73
2022/12/05 07:17:12;;;;;;;19.80;9.73;;;5.70;99.90;;;;;;5031319;28;20838;-72
2022/12/05 07:19:37;;;;;;;17.95;8.85;;;5.70;99.90;;;;;;5034262;28;20399;-73
2022/12/05 07:22:03;;;;;;;16.23;9.00;;;5.70;99.90;;;;;;5022961;28;20457;-73
2022/12/05 07:24:29;;;;;;;17.80;9.07;;;5.70;99.90;;;;;;5016327;28;20497;-73
2022/12/05 07:26:54;;;;;;;18.30;9.68;;;5.70;99.90;;;;;;5014845;28;20399;-73
2022/12/05 07:29:20;;;;;;;21.10;9.63;;;5.70;99.90;;;;;;5020976;28;20416;-73
2022/12/05 07:31:45;;;;;;;17.25;9.90;;;5.70;99.90;;;;;;5020472;28;20489;-72
2022/12/05 07:34:11;;;;;;;18.90;8.93;;;5.70;99.90;;;;;;5029042;28;20417;-73
2022/12/05 07:36:37;;;;;;;16.33;9.67;;;5.70;99.90;;;;;;5010499;28;20496;-73
2022/12/05 07:39:03;;;;;;;19.13;8.82;;;5.80;99.90;;;;;;5020627;28;20436;-73
2022/12/05 07:41:30;;;;;;;15.73;8.75;;;5.70;99.90;;;;;;5032506;28;20576;-73
2022/12/05 07:43:57;;;;;;;17.92;8.85;;;5.70;99.90;;;;;;5029754;28;20403;-73
2022/12/05 07:46:24;;;;;;;16.75;8.82;;;5.70;99.90;;;;;;5034278;28;20907;-73
2022/12/05 07:48:50;;;;;;;14.55;8.07;;;5.70;99.90;;;;;;5023974;28;20414;-73
2022/12/05 07:51:17;;;;;;;14.27;8.10;;;5.80;99.90;;;;;;5016275;28;20408;-73
2022/12/05 07:53:43;;;;;;;17.85;8.27;;;5.70;99.90;;;;;;5012819;28;20438;-73
2022/12/05 07:56:13;;;;;;;14.82;8.30;;;5.70;99.90;;;;;;5033279;28;20905;-73
2022/12/05 07:58:39;;;;;;;19.40;9.27;;;5.70;99.90;;;;;;5023706;28;20419;-73
2022/12/05 08:01:13;;;;;;;16.55;7.82;;;5.70;99.90;;;;;;5033157;28;20399;-73
2022/12/05 08:03:40;;;;;;;17.63;8.67;;;5.70;99.90;;;;;;5029080;28;20411;-73
2022/12/05 08:06:09;;;;;;;20.00;8.77;;;5.70;99.90;;;;;;5010265;28;20442;-73
2022/12/05 08:08:35;;;;;;;19.13;9.40;;;5.70;99.90;;;;;;5019421;28;20409;-72
2022/12/05 08:11:08;;;;;;;16.42;8.90;;;5.80;99.90;;;;;;5031248;28;20399;-73
2022/12/05 08:13:34;;;;;;;14.68;9.02;;;5.80;99.90;;;;;;5028256;28;20407;-73
2022/12/05 08:16:06;;;;;;;18.92;9.18;;;5.80;99.90;;;;;;5010263;28;20407;-73
2022/12/05 08:18:32;;;;;;;15.40;9.43;;;5.70;99.90;;;;;;5009759;28;20913;-72
2022/12/05 08:21:06;;;;;;;14.97;8.37;;;5.70;99.90;;;;;;5027949;28;20399;-72
2022/12/05 08:23:32;;;;;;;17.42;10.32;;;5.70;99.90;;;;;;5020122;28;20439;-73
2022/12/05 08:26:10;;;;;;;15.88;10.65;;;5.70;99.90;;;;;;5027971;28;20414;-73
2022/12/05 08:28:36;;;;;;;18.88;10.30;;;5.70;99.90;;;;;;5018548;28;20422;-73
2022/12/05 08:31:19;;;;;;;16.83;9.38;;;5.70;99.90;;;;;;5028009;28;20478;-73
2022/12/05 08:33:44;;;;;;;16.27;9.52;;;5.80;99.90;;;;;;5021864;28;20439;-72
2022/12/05 08:36:14;;;;;;;13.95;8.20;;;5.70;99.90;;;;;;5028513;28;20431;-73
2022/12/05 08:38:40;;;;;;;16.20;8.82;;;5.80;99.90;;;;;;5027970;28;20469;-72
2022/12/05 08:41:12;;;;;;;21.25;13.27;;;5.80;99.90;;;;;;5010357;28;20494;-73
2022/12/05 08:43:37;;;;;;;16.48;10.00;;;5.80;99.90;;;;;;5010307;28;20473;-73
2022/12/05 08:46:04;;;;;;;15.73;8.88;;;5.80;99.90;;;;;;5036191;28;20767;-73
2022/12/05 08:48:31;;;;;;;17.52;9.32;;;5.80;99.90;;;;;;5027724;28;20469;-72
2022/12/05 08:50:58;;;;;;;17.80;9.15;;;5.80;99.90;;;;;;5037367;28;20401;-72
2022/12/05 08:53:23;;;;;;;16.63;9.20;;;5.80;99.90;;;;;;5036033;28;20438;-72
2022/12/05 08:55:49;;;;;;;17.85;9.48;;;5.80;99.90;;;;;;5027516;28;20857;-73
2022/12/05 08:58:15;;;;;;;15.40;9.43;;;5.80;99.90;;;;;;5027082;28;20474;-73
2022/12/05 09:00:41;;;;;;;19.60;9.47;;;5.80;99.90;;;;;;5015057;28;20437;-72
2022/12/05 09:03:09;;;;;;;16.83;9.38;;;5.80;99.90;;;;;;5032873;28;20513;-72
2022/12/05 09:05:35;;;;;;;18.48;9.55;;;5.80;99.90;;;;;;5027289;28;20434;-72
2022/12/05 09:08:01;;;;;;;16.53;9.43;;;5.90;99.90;;;;;;5020742;28;20433;-72
2022/12/05 09:10:26;;;;;;;17.65;9.45;;;5.80;99.90;;;;;;5010335;28;20824;-73
2022/12/05 09:12:52;;;;;;;18.52;9.63;;;5.90;99.90;;;;;;5013189;28;20433;-73
2022/12/05 09:15:18;;;;;;;17.57;10.13;;;5.90;99.90;;;;;;5013530;28;20405;-73
2022/12/05 09:17:44;;;;;;;20.48;9.43;;;5.90;99.90;;;;;;4993616;28;20414;-72
2022/12/05 09:20:12;;;;;;;19.20;10.20;;;5.80;99.90;;;;;;5000274;28;20490;-72
2022/12/05 09:22:39;;;;;;;19.52;9.50;;;5.90;99.90;;;;;;5006595;28;20523;-73
2022/12/05 09:25:05;;;;;;;17.33;10.10;;;5.90;99.90;;;;;;4981203;28;20935;-72
2022/12/05 09:27:30;;;;;;;16.63;9.70;;;5.80;99.90;;;;;;5004017;28;20415;-73
2022/12/05 09:29:56;;;;;;;18.27;10.80;;;5.80;99.90;;;;;;5006690;28;20909;-72
2022/12/05 09:32:22;;;;;;;18.40;10.30;;;5.80;99.90;;;;;;4998084;28;20903;-73
2022/12/05 09:34:47;;;;;;;18.50;11.43;;;5.90;99.90;;;;;;5011592;28;20395;-73
2022/12/05 09:37:13;;;;;;;17.40;9.97;;;5.80;99.90;;;;;;5009333;28;20480;-72
2022/12/05 09:39:38;;;;;;;18.88;10.40;;;5.80;99.90;;;;;;5011235;28;20411;-72
2022/12/05 09:42:23;;;;;;;18.17;10.45;;;5.90;99.90;;;;;;4986429;28;20448;-72
2022/12/05 09:45:03;;;;;;;26.35;18.02;;;5.90;99.90;;;;;;5024638;28;20470;-72
2022/12/05 09:47:52;;;;;;;36.72;22.35;;;5.80;99.90;;;;;;5002457;28;20852;-72
2022/12/05 09:50:20;;;;;;;19.48;12.43;;;5.80;99.90;;;;;;5010703;28;20476;-72
2022/12/05 09:52:58;;;;;;;16.92;10.52;;;5.90;99.90;;;;;;5011432;28;20789;-72
2022/12/05 09:55:28;;;;;;;20.40;10.77;;;5.80;99.90;;;;;;5026626;28;20415;-72
2022/12/05 09:57:58;;;;;;;17.90;10.15;;;5.80;99.90;;;;;;5017444;28;20409;-72
2022/12/05 10:00:27;;;;;;;17.52;9.82;;;5.80;99.90;;;;;;4977483;28;20411;-72
2022/12/05 10:03:11;;;;;;;19.67;9.82;;;5.80;99.90;;;;;;5002721;28;20441;-72
2022/12/05 10:05:54;;;;;;;18.85;10.13;;;5.80;99.90;;;;;;5018118;28;20919;-73
2022/12/05 10:08:57;;;;;;;20.02;10.30;;;5.80;99.90;;;;;;5014976;28;20842;-72
2022/12/05 10:11:33;;;;;;;17.27;9.97;;;5.80;99.90;;;;;;5039195;28;20415;-72
2022/12/05 10:14:12;;;;;;;18.20;9.40;;;5.80;99.90;;;;;;5037463;28;21390;-73
2022/12/05 10:16:45;;;;;;;15.55;9.73;;;5.80;99.90;;;;;;5032658;28;21220;-72
2022/12/05 10:19:40;;;;;;;19.98;9.43;;;5.80;99.90;;;;;;5016381;28;20417;-73
2022/12/05 10:22:12;;;;;;;15.07;8.75;;;5.80;99.90;;;;;;5029439;28;20471;-72
2022/12/05 10:24:42;;;;;;;15.13;8.40;;;5.80;99.90;;;;;;5030799;28;20438;-72
2022/12/05 10:27:39;;;;;;;14.73;8.82;;;5.80;99.90;;;;;;5015956;28;20486;-73
2022/12/05 10:30:13;;;;;;;14.13;7.63;;;5.80;99.90;;;;;;5030394;28;20774;-72
2022/12/05 10:32:48;;;;;;;14.13;8.10;;;5.80;99.90;;;;;;5013907;28;20980;-72
2022/12/05 10:35:36;;;;;;;15.93;8.07;;;5.80;99.90;;;;;;5022558;28;20415;-72
2022/12/05 10:38:30;;;;;;;12.65;7.80;;;5.80;99.90;;;;;;5035914;28;20432;-72
2022/12/05 10:41:04;;;;;;;13.30;7.23;;;5.80;99.90;;;;;;5034137;28;20913;-72
2022/12/05 10:43:32;;;;;;;11.85;6.65;;;5.90;99.90;;;;;;5024268;28;20939;-72
2022/12/05 10:45:58;;;;;;;12.38;6.60;;;5.90;99.90;;;;;;5035580;28;20451;-72
2022/12/05 10:48:25;;;;;;;13.35;7.60;;;5.80;99.90;;;;;;5012550;28;21012;-72
2022/12/05 10:50:53;;;;;;;15.18;6.75;;;5.90;99.90;;;;;;5037867;28;20406;-72
2022/12/05 10:53:40;;;;;;;14.82;7.47;;;5.80;99.90;;;;;;5025766;28;20422;-73
2022/12/05 10:56:35;;;;;;;13.68;6.63;;;5.90;99.90;;;;;;5027234;28;20863;-73
2022/12/05 10:59:00;;;;;;;12.73;6.38;;;5.90;99.90;;;;;;5036251;28;20408;-73
2022/12/05 11:01:26;;;;;;;11.98;6.68;;;5.90;99.90;;;;;;5017201;28;20434;-72
2022/12/05 11:04:00;;;;;;;14.73;6.70;;;5.90;99.90;;;;;;5031372;28;20403;-72
2022/12/05 11:06:28;;;;;;;16.15;6.85;;;5.80;99.90;;;;;;5027549;28;20411;-72
2022/12/05 11:08:56;;;;;;;12.60;6.53;;;5.80;99.90;;;;;;5034534;28;20511;-71
2022/12/05 11:11:27;;;;;;;10.98;6.35;;;5.90;99.90;;;;;;5004805;28;20401;-72
2022/12/05 11:13:59;;;;;;;12.63;6.82;;;5.80;99.90;;;;;;5034369;28;20403;-71
2022/12/05 11:16:29;;;;;;;12.37;6.80;;;5.80;99.90;;;;;;5024154;28;20419;-72
2022/12/05 11:18:55;;;;;;;12.73;6.85;;;5.80;99.90;;;;;;5032021;28;20407;-72
2022/12/05 11:21:20;;;;;;;15.37;9.33;;;5.80;99.90;;;;;;5031368;28;20407;-72
2022/12/05 11:23:48;;;;;;;24.23;16.00;;;5.80;99.90;;;;;;5026650;28;20729;-72
2022/12/05 11:26:32;;;;;;;25.10;15.82;;;5.80;99.90;;;;;;5034083;28;20411;-72
2022/12/05 11:28:58;;;;;;;17.80;9.43;;;5.80;99.90;;;;;;5023875;28;20411;-73
2022/12/05 11:31:28;;;;;;;12.80;7.20;;;5.80;99.90;;;;;;5028823;28;20817;-72
2022/12/05 11:34:10;;;;;;;16.50;8.75;;;5.70;99.90;;;;;;5012020;28;20486;-72
2022/12/05 11:36:56;;;;;;;15.32;7.60;;;5.80;99.90;;;;;;5025053;28;20422;-72
2022/12/05 11:39:23;;;;;;;14.77;6.40;;;5.80;99.90;;;;;;5036443;28;20401;-72
2022/12/05 11:42:22;;;;;;;14.80;7.05;;;5.80;99.90;;;;;;5034316;28;20505;-72
2022/12/05 11:44:56;;;;;;;13.60;7.00;;;5.70;99.90;;;;;;5021142;28;20414;-72
2022/12/05 11:47:31;;;;;;;13.90;6.70;;;5.80;99.90;;;;;;5022508;28;20409;-72
2022/12/05 11:50:19;;;;;;;15.02;6.93;;;5.70;99.90;;;;;;5033639;28;20438;-72
2022/12/05 11:53:18;;;;;;;12.43;6.80;;;5.80;99.90;;;;;;5024336;28;20411;-72
2022/12/05 11:56:16;;;;;;;14.07;6.70;;;5.80;99.90;;;;;;5029261;28;20411;-72
2022/12/05 11:59:05;;;;;;;12.90;6.60;;;5.80;99.90;;;;;;5005651;28;20419;-72
2022/12/05 12:02:09;;;;;;;15.27;7.25;;;5.70;99.90;;;;;;5010724;28;21229;-72
2022/12/05 12:04:44;;;;;;;13.55;6.78;;;5.80;99.90;;;;;;5014592;28;20502;-73
2022/12/05 12:07:15;;;;;;;14.93;8.55;;;5.80;99.90;;;;;;5036533;28;20493;-72
2022/12/05 12:09:55;;;;;;;19.65;11.30;;;5.80;99.90;;;;;;5039525;28;20417;-72
2022/12/05 12:12:45;;;;;;;13.85;8.40;;;5.80;99.90;;;;;;5027655;28;20417;-72
2022/12/05 12:15:10;;;;;;;12.40;6.70;;;5.80;99.90;;;;;;5037606;28;20413;-72
2022/12/05 12:17:59;;;;;;;10.52;6.20;;;5.80;99.90;;;;;;5008622;28;20833;-72
2022/12/05 12:20:43;;;;;;;10.20;5.70;;;5.80;99.90;;;;;;5037074;28;20483;-72
2022/12/05 12:23:42;;;;;;;11.77;6.07;;;5.80;99.90;;;;;;5029472;28;20428;-72
2022/12/05 12:26:25;;;;;;;12.80;6.18;;;5.90;99.90;;;;;;5032108;28;20826;-73
2022/12/05 12:29:02;;;;;;;11.83;6.10;;;5.80;99.90;;;;;;5013775;28;21000;-73
2022/12/05 12:31:56;;;;;;;10.77;5.20;;;5.80;99.90;;;;;;5034740;28;20422;-72
2022/12/05 12:34:48;;;;;;;9.82;5.20;;;5.80;99.90;;;;;;5034433;28;20979;-72
2022/12/05 12:37:40;;;;;;;10.35;5.60;;;5.80;99.90;;;;;;5028136;28;20434;-72
2022/12/05 12:40:15;;;;;;;11.27;5.25;;;5.80;99.90;;;;;;5021548;28;20431;-73
2022/12/05 12:43:12;;;;;;;10.10;5.60;;;5.80;99.90;;;;;;5010625;28;20760;-72
2022/12/05 12:45:56;;;;;;;13.45;6.05;;;5.80;99.90;;;;;;5027079;28;20415;-72
2022/12/05 12:48:36;;;;;;;10.80;5.40;;;5.80;99.90;;;;;;5032206;28;20423;-73
2022/12/05 12:51:02;;;;;;;11.68;5.70;;;5.90;99.90;;;;;;5038352;28;20437;-72
2022/12/05 12:54:00;;;;;;;11.90;6.00;;;5.90;99.90;;;;;;5027588;28;20431;-73
2022/12/05 12:56:50;;;;;;;10.82;5.88;;;5.90;99.90;;;;;;5010754;28;20925;-72
2022/12/05 12:59:43;;;;;;;12.98;6.25;;;5.90;99.90;;;;;;5032777;28;20938;-73
2022/12/05 13:02:17;;;;;;;12.18;6.88;;;5.90;99.90;;;;;;5033093;28;20446;-72
2022/12/05 13:04:51;;;;;;;11.38;5.78;;;5.90;99.90;;;;;;5015792;28;20411;-73
2022/12/05 13:07:41;;;;;;;13.48;7.57;;;5.90;99.90;;;;;;5038216;28;20413;-72
2022/12/05 13:10:34;;;;;;;12.18;5.63;;;5.90;99.90;;;;;;5038760;28;20496;-73
2022/12/05 13:13:02;;;;;;;11.45;5.65;;;5.90;99.90;;;;;;5026147;28;20504;-72
2022/12/05 13:15:39;;;;;;;12.23;5.68;;;5.90;99.90;;;;;;5036811;28;20405;-73
2022/12/05 13:18:15;;;;;;;10.77;5.82;;;5.90;99.90;;;;;;5039957;28;20501;-73